Pilot Point, AK

6:25 PM AKDT on August 22, 2014 (GMT -0800)
Chignik | Change Station
CLOSE
Current Station
Airport
Location: Chignik,
Elevation: 16 ft
Nearby Weather Stations

Elev 16 ft 56.31 °N, 158.37 °W | Updated 9 minutes ago

Overcast
Overcast
57 °F
Feels Like 57 °F
N
12
Wind Variable Wind from ESE
Gusts 17 mph

Today
High -- | Low -- °F
--% Chance of Precip.
Yesterday
High -- | Low -- °F
Precip. -- in
7:10 AM 9:53 PM
Waning Crescent, 6% visible
Pressure 30.20 in
Visibility 10.0 miles
Clouds Mostly Cloudy 3600 ft
Overcast 4400 ft
Dew Point 48 °F
Humidity 72%
Rainfall 0.00 in
Snow Depth Not available.
UV 1 out of 12
Pollen Not available.
Air Quality Not available.
Flu Activity Not available.
METAR PAJC 230216Z AUTO 12010G15KT 10SM BKN036 OVC044 14/09 A3020 RMK AO1

More Conditions Fewer Conditions

Pressure 30.20 in
Visibility 10.0 miles
Clouds Mostly Cloudy 3600 ft
Overcast 4400 ft
Dew Point 48 °F
Humidity 72%
Rainfall 0.00 in
Snow Depth Not available.
UV 1 out of 12
Pollen Not available.
Air Quality Not available.
Flu Activity Not available.
METAR PAJC 230216Z AUTO 12010G15KT 10SM BKN036 OVC044 14/09 A3020 RMK AO1

More Conditions Fewer Conditions

10-Day Weather Forecast

Almanac

Astronomy

Aug. 22, 2014 Rise Set
Actual Time 7:10 AM AKDT 9:53 PM AKDT
Civil Twilight 6:26 AM AKDT 10:37 PM AKDT
Nautical Twilight 5:27 AM AKDT 11:34 PM AKDT
Astronomical Twilight 4:07 AM AKDT 12:52 AM AKDT
Moon 4:27 AM AKDT (8/22) 8:18 PM AKDT (8/22)
Length of Visible Light 16h 11m
Length of Day
14h 43m
Tomorrow will be 4m 46s shorter.
Waning Crescent, 6% of the Moon is Illuminated
Today
Waning Crescent
Aug 25
New
Sep 2
First Quarter
Sep 8
Full
Sep 15
Last Quarter

Today's Extremes

State Highs State Lows

Community

WunderPhotos

Upload Photos

1,746,345 photos uploaded!

WunderBlogs® & News

Nearby

Snow Depth

Station Depth Elevation
Mcneil Canyon 1 in 1320 ft
MF Bradley River 2 in 2300 ft
Cooper Lake 36 in 1200 ft
Grouse Creek Divide 0 in 700 ft
Summit Creek 0 in 1400 ft

Earthquake Activity

City Distance Mag. Time & Date
No recent earthquake activity has been reported nearby.
Minimum magnitude displayed is 2.5.

Coastal Water Temperatures

Place Temperature
No Stations Reporting

Nearby Weather Stations